Time;durP1;ratioP1;P1;durP2;ratioP2;P2;SDS_P1;SDS_P2;PMS_P1;PMS_P2;Temp;Humidity;BMP_temperature;BMP_pressure;BME280_temperature;BME280_humidity;BME280_pressure;Samples;Min_cycle;Max_cycle;Signal;HPM_P1;HPM_P2
2022/06/07 00:02:08;;;;;;;5.75;3.50;;;;;;;17.63;70.30;99115.53;1695258;83;21004;-78
2022/06/07 00:04:36;;;;;;;7.05;3.60;;;;;;;17.63;70.75;99110.28;1695094;85;21011;-80
2022/06/07 00:07:03;;;;;;;7.60;2.92;;;;;;;17.66;70.79;99107.46;1695169;85;21491;-78
2022/06/07 00:09:30;;;;;;;6.65;3.65;;;;;;;17.65;71.74;99109.25;1695335;84;20980;-79
2022/06/07 00:11:58;;;;;;;6.90;3.65;;;;;;;17.66;70.76;99104.83;1695169;85;21015;-78
2022/06/07 00:14:24;;;;;;;6.47;3.55;;;;;;;17.67;69.83;99108.70;1677863;85;21031;-78
2022/06/07 00:16:54;;;;;;;5.83;3.75;;;;;;;17.63;69.83;99109.80;1695113;83;20996;-79
2022/06/07 00:19:22;;;;;;;5.20;3.40;;;;;;;17.58;71.36;99101.77;1691759;85;21019;-78
2022/06/07 00:21:49;;;;;;;10.00;3.27;;;;;;;17.58;70.02;99109.66;1694935;84;21024;-78
2022/06/07 00:24:16;;;;;;;7.75;3.25;;;;;;;17.53;69.91;99108.60;1695149;83;21027;-78
2022/06/07 00:26:42;;;;;;;9.38;3.80;;;;;;;17.48;70.39;99102.25;1695114;84;21055;-78
2022/06/07 00:29:10;;;;;;;5.67;3.35;;;;;;;17.42;70.59;99103.90;1690976;85;21047;-79
2022/06/07 00:31:40;;;;;;;5.75;3.02;;;;;;;17.39;69.93;99096.20;1694960;83;21056;-79
2022/06/07 00:34:08;;;;;;;7.92;3.30;;;;;;;17.29;70.16;99095.83;1695179;85;21476;-80
2022/06/07 00:36:36;;;;;;;5.47;3.10;;;;;;;17.23;70.55;99090.91;1694857;85;21134;-79
2022/06/07 00:39:04;;;;;;;4.75;3.00;;;;;;;17.19;71.41;99091.99;1696572;83;21023;-80
2022/06/07 00:41:32;;;;;;;5.15;3.42;;;;;;;17.17;71.46;99089.04;1696300;84;21555;-78
2022/06/07 00:44:25;;;;;;;6.12;3.12;;;;;;;17.15;71.02;99097.47;1696642;84;21039;-80
2022/06/07 00:47:10;;;;;;;4.62;2.72;;;;;;;17.09;71.52;99090.78;1696650;84;21044;-78
2022/06/07 00:49:48;;;;;;;6.83;2.83;;;;;;;17.09;72.20;99084.21;1696166;84;20964;-79
2022/06/07 00:52:18;;;;;;;8.05;3.02;;;;;;;17.02;71.62;99087.59;1697009;84;21079;-79
2022/06/07 00:54:45;;;;;;;5.28;3.05;;;;;;;17.03;72.05;99083.19;1694516;84;21012;-78
2022/06/07 00:57:23;;;;;;;8.75;2.80;;;;;;;17.00;71.51;99084.67;1678404;84;21031;-78
2022/06/07 00:59:51;;;;;;;5.87;3.25;;;;;;;16.97;72.25;99093.57;1696962;83;21063;-78
2022/06/07 01:02:20;;;;;;;6.08;3.30;;;;;;;16.94;71.86;99079.74;1696904;84;21040;-79
2022/06/07 01:04:48;;;;;;;8.28;3.52;;;;;;;16.92;73.11;99081.13;1696910;84;21042;-79
2022/06/07 01:12:49;;;;;;;5.62;3.27;;;;;;;16.77;72.84;99082.74;1680590;84;21571;-78
2022/06/07 01:15:17;;;;;;;8.45;3.67;;;;;;;16.77;72.09;99080.55;1696869;84;20964;-82
2022/06/07 01:17:44;;;;;;;7.47;3.47;;;;;;;16.77;72.09;99080.55;1696980;84;21011;-78
2022/06/07 01:20:12;;;;;;;6.33;3.25;;;;;;;16.74;73.07;99069.75;1696746;84;21027;-78
2022/06/07 01:22:40;;;;;;;5.75;3.22;;;;;;;16.73;72.96;99069.83;1696431;84;21024;-79
2022/06/07 01:25:08;;;;;;;6.78;3.58;;;;;;;16.66;72.73;99067.98;1696540;83;20968;-78
2022/06/07 01:27:36;;;;;;;10.58;3.15;;;;;;;16.65;72.89;99075.46;1696959;84;21044;-79
2022/06/07 01:30:06;;;;;;;4.35;2.95;;;;;;;16.67;72.27;99074.92;1696805;84;20964;-78
2022/06/07 01:32:34;;;;;;;7.00;2.98;;;;;;;16.66;72.60;99071.45;1696563;83;20996;-80
2022/06/07 01:35:01;;;;;;;13.60;3.42;;;;;;;16.60;73.08;99071.77;1696647;84;21052;-78
2022/06/07 01:37:27;;;;;;;5.17;3.25;;;;;;;16.60;74.00;99064.36;1696507;82;21004;-79
2022/06/07 01:42:40;;;;;;;6.67;3.10;;;;;;;16.61;72.67;99057.73;1692831;85;21566;-78
2022/06/07 01:45:07;;;;;;;5.72;2.77;;;;;;;16.60;73.18;99063.05;1694889;83;20999;-79
2022/06/07 01:47:36;;;;;;;6.05;3.20;;;;;;;16.61;73.32;99067.36;1694994;85;20979;-79
2022/06/07 01:50:05;;;;;;;6.67;3.40;;;;;;;16.60;73.13;99063.89;1701609;83;21023;-80
2022/06/07 01:52:34;;;;;;;6.97;3.60;;;;;;;16.58;72.32;99058.34;1689835;84;21316;-79
2022/06/07 01:55:05;;;;;;;5.70;2.98;;;;;;;16.55;73.41;99056.70;1689409;85;21000;-79
2022/06/07 01:57:33;;;;;;;6.65;3.12;;;;;;;16.54;73.57;99061.58;1689590;83;21030;-78
2022/06/07 02:00:05;;;;;;;8.30;3.10;;;;;;;16.51;73.46;99056.47;1689975;85;20975;-78
2022/06/07 02:02:33;;;;;;;6.30;3.10;;;;;;;16.47;71.76;99052.30;1688718;83;21019;-79
2022/06/07 02:05:00;;;;;;;7.35;3.58;;;;;;;16.40;72.51;99051.77;1681719;84;21057;-79
2022/06/07 02:07:28;;;;;;;8.30;3.72;;;;;;;16.35;72.70;99050.29;1694588;83;21495;-82
2022/06/07 02:09:57;;;;;;;5.35;3.10;;;;;;;16.29;72.73;99047.06;1691881;83;21602;-78
2022/06/07 02:12:24;;;;;;;7.08;3.58;;;;;;;16.24;71.94;99045.11;1690016;83;21094;-78
2022/06/07 02:14:51;;;;;;;6.10;3.17;;;;;;;16.17;73.46;99049.42;1690124;84;20992;-79
2022/06/07 02:17:19;;;;;;;7.60;2.90;;;;;;;16.12;74.10;99053.59;1689834;83;20988;-79
2022/06/07 02:19:47;;;;;;;5.37;2.95;;;;;;;16.08;73.64;99048.95;1675691;84;21002;-80
2022/06/07 02:22:16;;;;;;;4.62;2.90;;;;;;;16.05;74.15;99055.64;1690934;83;21065;-79
2022/06/07 02:24:43;;;;;;;6.35;3.30;;;;;;;16.03;74.33;99049.62;1690961;84;21038;-78
2022/06/07 02:27:14;;;;;;;5.35;3.30;;;;;;;15.99;74.22;99057.25;1690535;83;21666;-79
2022/06/07 02:29:47;;;;;;;5.90;2.95;;;;;;;15.95;74.38;99057.01;1690055;85;21472;-79
2022/06/07 02:32:22;;;;;;;5.12;3.15;;;;;;;15.90;75.54;99060.33;1688951;83;21011;-80
2022/06/07 02:34:53;;;;;;;8.55;3.10;;;;;;;15.90;76.02;99063.79;1689629;84;21031;-80
2022/06/07 02:37:21;;;;;;;9.28;3.52;;;;;;;15.88;75.33;99066.95;1701897;83;21051;-79
2022/06/07 02:39:49;;;;;;;6.05;3.10;;;;;;;15.83;75.75;99070.70;1690334;84;21030;-80
2022/06/07 02:42:17;;;;;;;6.17;3.52;;;;;;;15.85;75.30;99068.86;1689934;84;21028;-82
2022/06/07 02:44:45;;;;;;;8.53;3.52;;;;;;;15.80;74.92;99066.93;1667997;85;21514;-80
2022/06/07 02:47:12;;;;;;;5.95;3.92;;;;;;;15.78;75.78;99076.64;1690008;84;20979;-78
2022/06/07 02:49:41;;;;;;;5.53;3.42;;;;;;;15.77;75.75;99078.86;1689953;83;21051;-79
2022/06/07 02:52:08;;;;;;;12.90;3.72;;;;;;;15.76;75.40;99082.41;1690034;84;20979;-78
2022/06/07 02:54:37;;;;;;;7.22;3.92;;;;;;;15.71;75.44;99087.34;1667862;84;21457;-78
2022/06/07 02:57:05;;;;;;;5.60;3.47;;;;;;;15.74;75.19;99092.09;1690043;84;21578;-79
2022/06/07 02:59:33;;;;;;;8.75;3.80;;;;;;;15.74;76.00;99092.09;1690217;83;21032;-80
2022/06/07 03:02:00;;;;;;;5.58;3.47;;;;;;;15.71;75.04;99098.30;1689905;84;20976;-78
2022/06/07 03:04:27;;;;;;;8.28;3.47;;;;;;;15.68;74.82;99101.92;1690000;83;21516;-78
2022/06/07 03:06:54;;;;;;;8.23;3.80;;;;;;;15.69;75.21;99099.67;1689356;84;21013;-79
2022/06/07 03:09:21;;;;;;;7.80;3.60;;;;;;;15.71;75.28;99099.14;1688666;83;21076;-79
2022/06/07 03:11:48;;;;;;;5.70;3.58;;;;;;;15.69;75.62;99100.98;1689817;84;21031;-78
2022/06/07 03:14:15;;;;;;;6.90;3.37;;;;;;;15.67;75.68;99103.30;1690155;83;21475;-79
2022/06/07 03:16:42;;;;;;;5.55;3.50;;;;;;;15.68;75.64;99099.30;1689415;84;21310;-79
2022/06/07 03:19:09;;;;;;;5.62;3.05;;;;;;;15.68;75.78;99102.39;1690108;84;21470;-79
2022/06/07 03:21:39;;;;;;;5.67;3.50;;;;;;;15.69;76.89;99106.69;1690065;83;21051;-78
2022/06/07 03:24:08;;;;;;;5.62;3.30;;;;;;;15.67;77.34;99105.44;1690264;84;20998;-78
2022/06/07 03:26:35;;;;;;;5.47;3.50;;;;;;;15.69;76.03;99117.17;1690200;83;20996;-78
2022/06/07 03:29:10;;;;;;;10.03;3.25;;;;;;;15.72;75.48;99111.81;1689692;85;21633;-80
2022/06/07 03:31:37;;;;;;;10.28;4.22;;;;;;;15.73;75.99;99112.69;1690065;83;21048;-79
2022/06/07 03:34:07;;;;;;;13.10;4.50;;;;;;;15.74;75.73;99113.05;1690164;84;20985;-79
2022/06/07 03:36:35;;;;;;;10.13;4.42;;;;;;;15.70;76.32;99114.96;1689706;83;21542;-79
2022/06/07 03:39:09;;;;;;;7.75;3.98;;;;;;;15.73;76.69;99120.08;1696756;84;21093;-79
2022/06/07 03:41:38;;;;;;;6.03;3.77;;;;;;;15.76;75.54;99116.48;1704465;83;21520;-78
2022/06/07 03:44:06;;;;;;;5.92;3.35;;;;;;;15.75;76.15;99113.46;1704445;83;21585;-79
2022/06/07 03:46:35;;;;;;;9.05;3.87;;;;;;;15.77;76.63;99117.70;1706355;83;21021;-80
2022/06/07 03:49:04;;;;;;;9.05;3.42;;;;;;;15.80;76.69;99108.87;1706350;83;21006;-79
2022/06/07 03:51:32;;;;;;;6.22;3.40;;;;;;;15.88;75.52;99115.91;1705562;83;21585;-78
2022/06/07 03:54:00;;;;;;;8.35;3.60;;;;;;;15.95;74.81;99117.31;1704768;84;21048;-79
2022/06/07 03:56:28;;;;;;;7.45;3.60;;;;;;;16.04;74.31;99114.27;1705318;83;21010;-78
2022/06/07 03:58:57;;;;;;;8.95;3.75;;;;;;;16.10;74.50;99111.35;1705154;83;21474;-78
2022/06/07 04:01:27;;;;;;;8.45;3.92;;;;;;;16.12;75.51;99117.84;1704918;83;21038;-78
2022/06/07 04:03:59;;;;;;;7.35;3.50;;;;;;;16.21;75.23;99099.49;1752857;80;20990;-78
2022/06/07 04:09:39;;;;;;;6.85;3.67;;;;;;;16.34;74.45;99110.27;1752717;82;21006;-78
2022/06/07 04:12:12;;;;;;;5.30;3.12;;;;;;;16.43;74.59;99110.67;1731340;81;20983;-84
2022/06/07 04:14:42;;;;;;;5.50;3.50;;;;;;;16.50;73.72;99110.73;1707483;84;21547;-78
2022/06/07 04:17:12;;;;;;;13.45;3.50;;;;;;;16.60;73.50;99110.30;1707826;84;21010;-78
2022/06/07 04:19:42;;;;;;;6.15;3.45;;;;;;;16.71;73.02;99107.95;1707511;84;21317;-78
2022/06/07 04:22:11;;;;;;;9.00;3.47;;;;;;;16.76;73.13;99104.66;1707144;84;21043;-79
2022/06/07 04:24:40;;;;;;;8.73;3.45;;;;;;;16.85;72.35;99109.92;1706280;83;21074;-80
2022/06/07 04:27:07;;;;;;;8.50;3.80;;;;;;;16.90;71.82;99107.93;1707562;83;21054;-79
2022/06/07 04:29:35;;;;;;;9.13;3.22;;;;;;;16.95;71.79;99105.93;1707679;84;20991;-79
2022/06/07 04:32:01;;;;;;;7.20;3.37;;;;;;;17.03;71.07;99110.77;1707496;83;20975;-84
2022/06/07 04:34:29;;;;;;;8.10;3.40;;;;;;;17.08;70.59;99110.08;1706445;84;20987;-81
2022/06/07 04:36:56;;;;;;;5.03;2.90;;;;;;;17.15;70.32;99104.03;1707310;83;21066;-78
2022/06/07 04:39:25;;;;;;;6.53;2.83;;;;;;;17.21;69.25;99108.52;1701005;83;21024;-81
2022/06/07 04:41:53;;;;;;;4.67;2.87;;;;;;;17.27;69.11;99102.94;1694795;84;21043;-79
2022/06/07 04:44:22;;;;;;;14.98;5.22;;;;;;;17.27;69.12;99106.89;1695001;84;21024;-80
2022/06/07 04:46:50;;;;;;;9.33;4.70;;;;;;;17.29;69.53;99108.13;1695303;85;21488;-78
2022/06/07 04:49:17;;;;;;;9.65;3.55;;;;;;;17.29;69.86;99108.97;1695408;84;20991;-79
2022/06/07 04:51:44;;;;;;;7.08;2.90;;;;;;;17.29;69.20;99114.22;1682813;85;21554;-79
2022/06/07 04:54:16;;;;;;;7.92;2.85;;;;;;;17.29;68.90;99113.38;1694209;84;20956;-78
2022/06/07 04:56:45;;;;;;;8.03;2.98;;;;;;;17.23;68.89;99107.98;1694727;85;21016;-78
2022/06/07 04:59:13;;;;;;;5.55;2.70;;;;;;;17.23;68.84;99111.92;1695563;84;21023;-79
2022/06/07 05:01:44;;;;;;;6.42;2.90;;;;;;;17.23;69.23;99114.55;1694387;84;21642;-82
2022/06/07 05:04:13;;;;;;;6.35;2.90;;;;;;;17.24;68.98;99115.38;1695254;84;21024;-80
2022/06/07 05:06:43;;;;;;;5.05;2.83;;;;;;;17.27;69.53;99118.70;1695040;84;21004;-80
2022/06/07 05:09:22;;;;;;;5.15;2.98;;;;;;;17.31;69.52;99123.34;1690924;83;21008;-80
2022/06/07 05:11:53;;;;;;;6.20;3.17;;;;;;;17.34;69.63;99128.42;1695512;84;21034;-80
2022/06/07 05:14:23;;;;;;;5.67;2.98;;;;;;;17.38;69.47;99131.27;1695523;84;21007;-81
2022/06/07 05:16:51;;;;;;;6.80;2.90;;;;;;;17.41;69.25;99123.72;1695172;85;21354;-79
2022/06/07 05:19:23;;;;;;;9.20;4.75;;;;;;;17.48;68.88;99127.70;1676185;85;21000;-81
2022/06/07 05:21:52;;;;;;;6.92;3.45;;;;;;;17.54;68.80;99127.84;1694744;84;21080;-79
2022/06/07 05:24:19;;;;;;;7.30;3.35;;;;;;;17.58;68.68;99130.22;1695490;85;21050;-80
2022/06/07 05:26:51;;;;;;;6.28;3.58;;;;;;;17.66;68.62;99130.66;1695315;85;21359;-79
2022/06/07 05:29:28;;;;;;;;;;;;;;;17.77;68.79;99127.94;1698058;84;21023;-80
2022/06/07 05:31:56;;;;;;;7.75;3.60;;;;;;;17.90;67.78;99125.03;1665446;85;20131;-81
2022/06/07 05:34:23;;;;;;;8.48;3.50;;;;;;;17.98;67.83;99119.36;1689968;83;21063;-79
2022/06/07 05:36:51;;;;;;;8.05;3.22;;;;;;;18.08;67.36;99124.04;1681920;85;21099;-80
2022/06/07 05:39:25;;;;;;;6.15;3.02;;;;;;;18.14;66.62;99124.62;1695009;83;21008;-80
2022/06/07 05:41:54;;;;;;;6.25;3.45;;;;;;;18.19;65.93;99118.64;1695225;85;21087;-80
2022/06/07 05:44:24;;;;;;;5.58;3.75;;;;;;;18.21;65.63;99125.98;1688782;83;21023;-78
2022/06/07 05:46:53;;;;;;;13.58;7.05;;;;;;;18.23;65.97;99124.11;1693290;83;21129;-79
2022/06/07 05:49:24;;;;;;;7.25;3.83;;;;;;;18.25;66.11;99123.08;1690521;84;21035;-80
2022/06/07 05:52:04;;;;;;;8.28;3.52;;;;;;;18.27;66.19;99121.69;1693387;84;21032;-79
2022/06/07 05:54:34;;;;;;;8.15;3.40;;;;;;;18.23;66.31;99127.59;1694249;85;21047;-79
2022/06/07 05:57:04;;;;;;;10.60;4.60;;;;;;;18.31;66.37;99126.31;1670508;85;21170;-79
2022/06/07 05:59:30;;;;;;;5.65;3.80;;;;;;;18.39;66.01;99122.78;1662022;85;21027;-80
2022/06/07 06:01:58;;;;;;;9.38;3.92;;;;;;;18.45;66.16;99114.53;1665748;85;21051;-78
2022/06/07 06:04:27;;;;;;;5.72;3.77;;;;;;;18.55;66.06;99120.12;1691137;83;21072;-79
2022/06/07 06:06:57;;;;;;;8.08;4.08;;;;;;;18.59;66.18;99123.80;1692386;83;21019;-79
2022/06/07 06:12:12;;;;;;;9.25;3.42;;;;;;;18.66;66.00;99124.28;1684158;83;20964;-79
2022/06/07 06:14:42;;;;;;;7.55;3.62;;;;;;;18.67;66.18;99125.98;1686003;83;21602;-79
2022/06/07 06:17:10;;;;;;;9.85;4.97;;;;;;;18.71;66.10;99130.62;1691611;83;21332;-79
2022/06/07 06:19:39;;;;;;;5.50;3.58;;;;;;;18.76;66.32;99124.59;1689735;83;20999;-79
2022/06/07 06:22:06;;;;;;;6.05;3.35;;;;;;;18.80;66.32;99116.48;1689301;83;22030;-81
2022/06/07 06:24:35;;;;;;;8.70;3.35;;;;;;;18.83;66.53;99122.87;1687767;83;21035;-80
2022/06/07 06:27:04;;;;;;;9.05;4.53;;;;;;;18.83;66.25;99112.81;1691679;83;21187;-84
2022/06/07 06:29:33;;;;;;;9.75;3.70;;;;;;;18.89;66.28;99109.81;1691039;83;21558;-79
2022/06/07 06:32:02;;;;;;;7.80;3.37;;;;;;;19.01;66.21;99111.71;1689040;83;21011;-80
2022/06/07 06:34:29;;;;;;;7.22;3.67;;;;;;;19.17;65.96;99110.33;1691594;83;21083;-83
2022/06/07 06:36:58;;;;;;;6.65;3.90;;;;;;;19.28;65.28;99113.65;1693130;83;21031;-79
2022/06/07 06:39:27;;;;;;;6.37;3.72;;;;;;;19.36;65.04;99106.12;1690216;83;21594;-81
2022/06/07 06:41:55;;;;;;;9.38;4.28;;;;;;;19.38;65.12;99113.94;1693187;83;21070;-80
2022/06/07 06:44:26;;;;;;;8.88;3.60;;;;;;;19.43;64.93;99107.89;1688137;83;21047;-78
2022/06/07 06:46:55;;;;;;;11.22;3.67;;;;;;;19.50;64.45;99103.95;1691602;83;21090;-83
2022/06/07 06:49:24;;;;;;;8.78;3.83;;;;;;;19.52;64.01;99103.39;1690320;83;21348;-80
2022/06/07 06:51:51;;;;;;;5.03;3.45;;;;;;;19.54;63.86;99108.09;1690777;83;21039;-82
2022/06/07 06:54:20;;;;;;;6.87;4.00;;;;;;;19.58;63.62;99101.69;1689648;83;21466;-78
2022/06/07 06:56:54;;;;;;;7.90;3.62;;;;;;;19.64;63.22;99095.19;1688384;83;21061;-82
2022/06/07 06:59:23;;;;;;;6.40;3.37;;;;;;;19.72;63.50;99093.42;1689655;83;21035;-79
2022/06/07 07:01:52;;;;;;;6.15;2.92;;;;;;;19.88;62.51;99098.10;1693331;83;21545;-80
2022/06/07 07:04:21;;;;;;;10.10;3.40;;;;;;;19.98;62.04;99089.97;1691155;83;21012;-82
2022/06/07 07:06:50;;;;;;;5.00;3.12;;;;;;;20.01;61.22;99090.23;1689946;83;21040;-79
2022/06/07 07:09:22;;;;;;;6.47;2.87;;;;;;;20.01;60.55;99090.23;1690219;83;21034;-79
2022/06/07 07:11:53;;;;;;;4.90;2.62;;;;;;;20.01;60.95;99097.67;1690774;83;21648;-79
2022/06/07 07:14:28;;;;;;;5.03;2.37;;;;;;;20.05;60.42;99085.13;1693120;83;21070;-81
2022/06/07 07:16:56;;;;;;;7.25;3.35;;;;;;;20.18;59.61;99079.45;1667171;83;21113;-79
2022/06/07 07:19:23;;;;;;;8.33;3.05;;;;;;;20.30;60.36;99075.16;1689525;83;21050;-79
2022/06/07 07:21:51;;;;;;;5.50;2.62;;;;;;;20.44;60.53;99072.94;1688544;83;21079;-79
2022/06/07 07:24:23;;;;;;;7.35;3.27;;;;;;;20.53;55.73;99072.78;1686832;83;21059;-79
2022/06/07 07:26:52;;;;;;;5.17;3.33;;;;;;;20.62;57.85;99065.13;1691270;83;21042;-78
2022/06/07 07:29:23;;;;;;;7.45;3.70;;;;;;;20.72;58.06;99068.48;1690769;83;22231;-78
2022/06/07 07:31:52;;;;;;;4.40;2.60;;;;;;;20.76;55.52;99066.00;1686722;83;20996;-79
2022/06/07 07:34:21;;;;;;;3.85;2.80;;;;;;;20.87;57.49;99062.17;1688137;83;21534;-77
2022/06/07 07:36:53;;;;;;;3.92;2.70;;;;;;;20.95;56.83;99052.38;1690310;83;20995;-79
2022/06/07 07:39:21;;;;;;;5.28;2.70;;;;;;;21.08;56.51;99053.23;1690564;83;21015;-79
2022/06/07 07:41:51;;;;;;;5.30;3.40;;;;;;;21.10;56.84;99052.64;1689172;83;21098;-79
2022/06/07 07:44:19;;;;;;;4.85;2.70;;;;;;;21.19;56.50;99057.30;1688079;83;20999;-79
2022/06/07 07:46:48;;;;;;;6.42;2.75;;;;;;;21.19;55.26;99055.14;1667382;85;21374;-79
2022/06/07 07:49:19;;;;;;;5.72;2.72;;;;;;;21.25;56.12;99048.95;1689417;83;21043;-79
2022/06/07 07:51:49;;;;;;;10.95;2.92;;;;;;;21.16;55.17;99042.97;1689476;83;20999;-78
2022/06/07 07:54:21;;;;;;;6.17;3.12;;;;;;;21.26;56.41;99045.81;1673916;83;21035;-80
2022/06/07 07:56:49;;;;;;;9.05;3.15;;;;;;;21.32;57.05;99050.67;1690942;83;21130;-80
2022/06/07 07:59:19;;;;;;;6.65;3.12;;;;;;;21.43;56.72;99043.35;1691989;83;21094;-79
2022/06/07 08:01:49;;;;;;;4.25;2.90;;;;;;;21.44;56.87;99043.22;1691903;83;21118;-79
2022/06/07 08:04:16;;;;;;;5.95;2.85;;;;;;;21.50;57.17;99037.14;1684759;83;21032;-78
2022/06/07 08:06:45;;;;;;;5.53;2.95;;;;;;;21.63;57.16;99037.48;1691583;83;21535;-79
2022/06/07 08:09:13;;;;;;;5.45;2.72;;;;;;;21.75;56.87;99034.92;1694027;83;21023;-79
2022/06/07 08:11:42;;;;;;;7.40;2.95;;;;;;;21.84;56.28;99035.55;1694757;83;21060;-80
2022/06/07 08:14:14;;;;;;;4.72;2.72;;;;;;;21.94;56.35;99036.56;1691626;83;21046;-80
2022/06/07 08:16:42;;;;;;;4.12;2.62;;;;;;;21.99;55.43;99027.83;1676683;84;21018;-79
2022/06/07 08:19:09;;;;;;;7.78;4.60;;;;;;;22.07;55.76;99033.05;1692414;83;21095;-79
2022/06/07 08:21:38;;;;;;;5.15;3.00;;;;;;;22.11;55.33;99030.05;1690668;83;21075;-81
2022/06/07 08:24:06;;;;;;;5.17;2.90;;;;;;;22.19;55.87;99031.65;1695129;83;21048;-81
2022/06/07 08:26:33;;;;;;;7.17;2.98;;;;;;;22.29;55.13;99033.66;1693205;83;21104;-79
2022/06/07 08:29:03;;;;;;;5.05;3.10;;;;;;;22.33;55.31;99024.03;1693339;83;21027;-80
2022/06/07 08:31:32;;;;;;;5.03;3.05;;;;;;;22.40;54.93;99019.98;1694523;83;21113;-80
2022/06/07 08:39:32;;;;;;;6.25;3.30;;;;;;;22.78;54.84;99021.52;1693449;83;21534;-78
2022/06/07 08:42:16;;;;;;;5.47;2.67;;;;;;;22.86;54.71;99014.30;1693194;83;21072;-78
2022/06/07 08:44:52;;;;;;;7.05;3.08;;;;;;;23.00;54.21;99017.22;1692559;85;21022;-80
2022/06/07 08:47:41;;;;;;;4.45;2.87;;;;;;;23.10;53.29;99012.04;1701714;83;21563;-79
2022/06/07 08:50:29;;;;;;;6.03;2.80;;;;;;;23.14;53.17;99002.87;1691087;85;21532;-79
2022/06/07 08:53:04;;;;;;;5.37;2.95;;;;;;;23.15;52.40;99013.38;1688353;83;21003;-79
2022/06/07 08:55:39;;;;;;;3.98;2.80;;;;;;;23.23;53.08;98999.52;1689140;85;21613;-81
2022/06/07 08:58:29;;;;;;;5.62;3.10;;;;;;;23.37;53.73;98995.77;1689307;83;21027;-79
2022/06/07 09:01:03;;;;;;;7.25;3.00;;;;;;;23.53;51.80;98992.73;1689446;85;21074;-79
2022/06/07 09:04:02;;;;;;;6.03;2.87;;;;;;;23.61;51.80;98992.46;1687341;83;21016;-79
2022/06/07 09:06:34;;;;;;;5.97;3.15;;;;;;;23.65;52.53;98985.59;1688257;85;21003;-80
2022/06/07 09:09:01;;;;;;;6.47;3.05;;;;;;;23.72;50.62;98978.34;1690940;83;21008;-79
2022/06/07 09:14:33;;;;;;;10.20;6.55;;;;;;;23.90;50.30;98976.02;1687702;85;21082;-81
2022/06/07 09:17:04;;;;;;;5.50;2.67;;;;;;;23.89;50.09;98982.28;1688243;85;20970;-80
2022/06/07 09:19:32;;;;;;;4.83;3.02;;;;;;;23.95;48.55;98978.29;1687859;83;21040;-82
2022/06/07 09:22:04;;;;;;;5.30;3.05;;;;;;;23.94;47.73;98973.47;1688696;85;21015;-79
2022/06/07 09:24:40;;;;;;;4.25;2.80;;;;;;;23.97;48.28;98969.25;1689884;83;21075;-80
2022/06/07 09:27:23;;;;;;;6.08;3.37;;;;;;;24.10;48.79;98965.57;1689708;85;21094;-80
2022/06/07 09:29:55;;;;;;;;;;;;;;;24.15;46.63;98966.02;1694117;83;22166;-80
2022/06/07 09:32:27;;;;;;;6.35;3.00;;;;;;;24.12;47.75;98956.50;1691515;85;20133;-80
2022/06/07 09:35:02;;;;;;;4.25;2.70;;;;;;;24.23;48.03;98950.27;1668837;85;20973;-83
2022/06/07 09:37:40;;;;;;;4.95;2.83;;;;;;;24.29;45.45;98953.77;1694127;83;21071;-82
2022/06/07 09:40:29;;;;;;;7.70;2.75;;;;;;;24.35;46.70;98947.94;1693360;83;21039;-81
2022/06/07 09:43:16;;;;;;;4.12;2.65;;;;;;;24.46;47.38;98947.02;1678863;83;21082;-81
2022/06/07 09:45:57;;;;;;;4.30;2.58;;;;;;;24.57;46.22;98945.66;1707220;83;21067;-83
2022/06/07 09:48:31;;;;;;;5.62;2.60;;;;;;;24.71;45.93;98940.48;1704565;84;21014;-82
2022/06/07 09:51:16;;;;;;;5.37;2.83;;;;;;;24.85;45.04;98941.95;1704855;83;21032;-81
2022/06/07 09:53:48;;;;;;;3.80;2.33;;;;;;;24.93;45.38;98937.27;1693819;84;21083;-82
2022/06/07 09:56:47;;;;;;;4.72;2.45;;;;;;;25.00;45.58;98930.45;1700979;83;21026;-80
2022/06/07 09:59:34;;;;;;;3.08;2.00;;;;;;;25.11;45.86;98933.02;1699103;84;21025;-81
2022/06/07 10:02:23;;;;;;;5.42;2.50;;;;;;;25.25;43.42;98934.95;1751410;80;21074;-80
2022/06/07 10:05:09;;;;;;;3.85;2.35;;;;;;;25.25;42.94;98925.64;1749451;82;22251;-80
2022/06/07 10:08:00;;;;;;;10.10;5.15;;;;;;;25.34;40.76;98922.18;1752991;80;21051;-82
2022/06/07 10:10:54;;;;;;;8.50;3.02;;;;;;;25.43;43.53;98925.83;1723185;82;21566;-82
2022/06/07 10:13:54;;;;;;;4.17;2.67;;;;;;;25.52;44.80;98916.53;1751989;82;21018;-81
2022/06/07 10:16:32;;;;;;;5.85;2.65;;;;;;;25.62;44.58;98913.05;1748286;80;21037;-82
2022/06/07 10:19:15;;;;;;;4.72;2.58;;;;;;;25.61;43.18;98916.20;1749340;82;21005;-80
2022/06/07 10:22:18;;;;;;;4.95;2.33;;;;;;;25.70;44.37;98903.37;1751699;82;21070;-82
2022/06/07 10:25:06;;;;;;;11.35;3.40;;;;;;;25.79;43.97;98907.04;1752582;82;22084;-82
2022/06/07 10:27:55;;;;;;;3.72;2.42;;;;;;;25.84;43.76;98898.13;1751181;80;21030;-81
2022/06/07 10:30:27;;;;;;;3.12;2.17;;;;;;;25.92;44.32;98888.13;1752501;82;21522;-81
2022/06/07 10:33:35;;;;;;;3.72;2.22;;;;;;;26.12;43.75;98886.28;1753333;80;21031;-81
2022/06/07 10:36:42;;;;;;;4.00;2.35;;;;;;;26.18;43.75;98884.38;1753051;82;21314;-81
2022/06/07 10:39:26;;;;;;;3.90;2.20;;;;;;;26.37;44.31;98877.67;1749863;80;21037;-81
2022/06/07 10:42:13;;;;;;;4.33;2.20;;;;;;;26.55;40.81;98878.26;1746605;82;21006;-82
2022/06/07 10:45:10;;;;;;;4.90;2.45;;;;;;;26.60;41.41;98870.71;1743561;81;21011;-81
2022/06/07 10:47:59;;;;;;;4.83;2.00;;;;;;;26.63;40.22;98868.23;1741661;82;21019;-82
2022/06/07 10:50:37;;;;;;;9.73;6.87;;;;;;;26.63;40.30;98863.73;1744577;82;21145;-82
2022/06/07 10:53:15;;;;;;;7.72;3.80;;;;;;;26.74;40.74;98864.03;1740663;81;21578;-81
2022/06/07 10:55:59;;;;;;;4.72;2.20;;;;;;;26.90;40.27;98858.05;1677285;85;20990;-80
2022/06/07 10:58:45;;;;;;;3.08;1.90;;;;;;;26.96;37.59;98864.98;1695173;84;20980;-82
2022/06/07 11:01:17;;;;;;;4.80;2.10;;;;;;;27.07;37.74;98860.43;1695948;84;21027;-82
2022/06/07 11:03:49;;;;;;;3.17;2.02;;;;;;;27.14;38.04;98849.02;1692675;85;21075;-82
2022/06/07 11:09:29;;;;;;;3.65;2.20;;;;;;;27.35;39.02;98848.74;1694189;83;20989;-81
2022/06/07 11:12:05;;;;;;;5.50;2.15;;;;;;;27.48;38.80;98847.55;1694622;85;21019;-81
2022/06/07 11:15:07;;;;;;;3.12;2.05;;;;;;;27.63;39.65;98833.98;1691725;83;21009;-81
2022/06/07 11:17:55;;;;;;;3.50;2.30;;;;;;;27.80;39.77;98837.64;1688077;84;21064;-81
2022/06/07 11:20:27;;;;;;;53.63;3.27;;;;;;;27.96;35.88;98838.30;1689434;83;21574;-83
2022/06/07 11:23:17;;;;;;;2.80;1.95;;;;;;;28.00;35.86;98833.48;1691927;83;21582;-83
2022/06/07 11:26:02;;;;;;;4.78;2.08;;;;;;;28.13;38.30;98833.41;1694285;83;21030;-81
2022/06/07 11:28:37;;;;;;;8.73;2.90;;;;;;;28.19;36.64;98829.25;1691746;83;21157;-82
2022/06/07 11:31:36;;;;;;;4.03;2.27;;;;;;;28.27;37.23;98822.64;1690369;83;21600;-81
2022/06/07 11:34:13;;;;;;;3.08;2.10;;;;;;;28.30;35.75;98823.64;1690118;83;21130;-80
2022/06/07 11:36:43;;;;;;;3.52;2.05;;;;;;;28.43;36.19;98814.34;1435257;85;10000540;-81
2022/06/07 11:39:21;;;;;;;2.22;1.55;;;;;;;28.40;35.43;98816.02;1688393;83;21077;-81
2022/06/07 11:41:52;;;;;;;2.60;1.72;;;;;;;28.48;36.46;98809.37;1698523;83;21928;-79
2022/06/07 11:44:39;;;;;;;5.08;1.65;;;;;;;28.72;37.14;98810.83;1405431;82;10000577;-81
2022/06/07 11:47:14;;;;;;;3.08;1.98;;;;;;;28.95;36.33;98803.56;1703215;83;21119;-82
2022/06/07 11:49:46;;;;;;;3.02;1.70;;;;;;;29.05;33.26;98805.59;1751900;80;21086;-81
2022/06/07 11:52:24;;;;;;;4.85;2.10;;;;;;;29.04;33.88;98799.88;1751336;80;21152;-79
2022/06/07 11:55:11;;;;;;;3.12;1.67;;;;;;;29.14;34.93;98797.09;1749881;82;21057;-79
2022/06/07 11:57:58;;;;;;;2.58;1.72;;;;;;;29.25;33.44;98792.77;1752224;80;21028;-79
2022/06/07 12:00:36;;;;;;;3.15;1.80;;;;;;;29.34;34.52;98798.45;1750892;82;21008;-80
2022/06/07 12:03:29;;;;;;;5.20;1.80;;;;;;;29.44;33.81;98789.43;1750483;80;20986;-79
2022/06/07 12:06:13;;;;;;;3.67;1.77;;;;;;;29.69;33.90;98787.59;1718786;83;21169;-80
2022/06/07 12:08:57;;;;;;;3.95;1.92;;;;;;;30.04;32.98;98780.19;1721351;83;21094;-81
2022/06/07 12:11:29;;;;;;;3.35;2.30;;;;;;;30.43;33.72;98776.77;1722282;83;21046;-80
2022/06/07 12:14:09;;;;;;;;;;;;;;;30.89;30.53;98770.19;1722542;82;21565;-81
2022/06/07 12:16:43;;;;;;;2.62;1.75;;;;;;;31.26;31.71;98773.47;1718315;82;20176;-80
2022/06/07 12:19:26;;;;;;;3.92;2.10;;;;;;;31.53;28.80;98771.78;1721158;82;20994;-80
2022/06/07 12:22:13;;;;;;;3.00;1.62;;;;;;;31.96;31.14;98766.16;1722947;83;21055;-80
2022/06/07 12:25:03;;;;;;;4.08;1.60;;;;;;;32.67;30.44;98769.77;1721891;82;22269;-80
2022/06/07 12:27:35;;;;;;;3.83;1.52;;;;;;;33.50;28.82;98756.73;1718017;83;21094;-80